sensor_id;sensor_type;location;lat;lon;timestamp;P1;durP1;ratioP1;P2;durP2;ratioP2
76612;SDS011;65507;48.454;-2.058;2023-02-15T00:01:24;33.65;;;15.73;;
76612;SDS011;65507;48.454;-2.058;2023-02-15T00:03:50;35.17;;;16.70;;
76612;SDS011;65507;48.454;-2.058;2023-02-15T00:06:16;31.60;;;15.27;;
76612;SDS011;65507;48.454;-2.058;2023-02-15T00:08:42;41.05;;;15.48;;
76612;SDS011;65507;48.454;-2.058;2023-02-15T00:11:09;31.45;;;15.07;;
76612;SDS011;65507;48.454;-2.058;2023-02-15T00:13:36;32.55;;;15.38;;
76612;SDS011;65507;48.454;-2.058;2023-02-15T00:16:04;34.30;;;15.23;;
76612;SDS011;65507;48.454;-2.058;2023-02-15T00:18:32;33.47;;;15.68;;
76612;SDS011;65507;48.454;-2.058;2023-02-15T00:20:58;30.05;;;14.43;;
76612;SDS011;65507;48.454;-2.058;2023-02-15T00:23:28;30.67;;;15.10;;
76612;SDS011;65507;48.454;-2.058;2023-02-15T00:26:02;30.95;;;13.50;;
76612;SDS011;65507;48.454;-2.058;2023-02-15T00:28:32;30.63;;;14.45;;
76612;SDS011;65507;48.454;-2.058;2023-02-15T00:31:10;28.15;;;13.98;;
76612;SDS011;65507;48.454;-2.058;2023-02-15T00:33:37;29.05;;;14.05;;
76612;SDS011;65507;48.454;-2.058;2023-02-15T00:36:04;31.45;;;13.77;;
76612;SDS011;65507;48.454;-2.058;2023-02-15T00:38:32;29.67;;;13.25;;
76612;SDS011;65507;48.454;-2.058;2023-02-15T00:40:59;30.38;;;14.07;;
76612;SDS011;65507;48.454;-2.058;2023-02-15T00:43:27;31.75;;;14.27;;
76612;SDS011;65507;48.454;-2.058;2023-02-15T00:45:54;28.77;;;12.90;;
76612;SDS011;65507;48.454;-2.058;2023-02-15T00:48:20;27.17;;;12.73;;
76612;SDS011;65507;48.454;-2.058;2023-02-15T00:50:46;30.48;;;12.70;;
76612;SDS011;65507;48.454;-2.058;2023-02-15T00:53:15;27.42;;;12.75;;
76612;SDS011;65507;48.454;-2.058;2023-02-15T00:55:41;31.98;;;14.38;;
76612;SDS011;65507;48.454;-2.058;2023-02-15T00:58:07;29.48;;;13.82;;
76612;SDS011;65507;48.454;-2.058;2023-02-15T01:00:34;28.38;;;13.40;;
76612;SDS011;65507;48.454;-2.058;2023-02-15T01:02:59;29.20;;;13.52;;
76612;SDS011;65507;48.454;-2.058;2023-02-15T01:05:25;29.73;;;13.65;;
76612;SDS011;65507;48.454;-2.058;2023-02-15T01:07:51;26.63;;;13.27;;
76612;SDS011;65507;48.454;-2.058;2023-02-15T01:10:16;23.52;;;12.65;;
76612;SDS011;65507;48.454;-2.058;2023-02-15T01:12:42;29.92;;;14.02;;
76612;SDS011;65507;48.454;-2.058;2023-02-15T01:15:08;25.92;;;13.18;;
76612;SDS011;65507;48.454;-2.058;2023-02-15T01:17:34;28.38;;;12.50;;
76612;SDS011;65507;48.454;-2.058;2023-02-15T01:20:00;27.45;;;12.35;;
76612;SDS011;65507;48.454;-2.058;2023-02-15T01:22:26;25.38;;;13.30;;
76612;SDS011;65507;48.454;-2.058;2023-02-15T01:24:52;28.60;;;12.98;;
76612;SDS011;65507;48.454;-2.058;2023-02-15T01:27:18;28.50;;;13.40;;
76612;SDS011;65507;48.454;-2.058;2023-02-15T01:29:43;27.33;;;12.98;;
76612;SDS011;65507;48.454;-2.058;2023-02-15T01:32:09;30.67;;;13.77;;
76612;SDS011;65507;48.454;-2.058;2023-02-15T01:34:35;26.00;;;13.15;;
76612;SDS011;65507;48.454;-2.058;2023-02-15T01:37:00;33.75;;;13.82;;
76612;SDS011;65507;48.454;-2.058;2023-02-15T01:39:26;28.13;;;13.48;;
76612;SDS011;65507;48.454;-2.058;2023-02-15T01:41:52;29.42;;;13.60;;
76612;SDS011;65507;48.454;-2.058;2023-02-15T01:47:39;33.80;;;14.45;;
76612;SDS011;65507;48.454;-2.058;2023-02-15T01:50:10;33.05;;;13.80;;
76612;SDS011;65507;48.454;-2.058;2023-02-15T01:52:40;26.88;;;12.95;;
76612;SDS011;65507;48.454;-2.058;2023-02-15T01:55:16;28.85;;;14.40;;
76612;SDS011;65507;48.454;-2.058;2023-02-15T01:57:43;31.98;;;13.70;;
76612;SDS011;65507;48.454;-2.058;2023-02-15T02:00:11;29.25;;;14.50;;
76612;SDS011;65507;48.454;-2.058;2023-02-15T02:02:38;31.67;;;14.70;;
76612;SDS011;65507;48.454;-2.058;2023-02-15T02:07:33;27.85;;;13.13;;
76612;SDS011;65507;48.454;-2.058;2023-02-15T02:10:02;29.33;;;13.95;;
76612;SDS011;65507;48.454;-2.058;2023-02-15T02:12:29;29.08;;;13.10;;
76612;SDS011;65507;48.454;-2.058;2023-02-15T02:14:55;31.65;;;14.85;;
76612;SDS011;65507;48.454;-2.058;2023-02-15T02:20:25;30.38;;;13.88;;
76612;SDS011;65507;48.454;-2.058;2023-02-15T02:34:50;30.02;;;13.95;;
76612;SDS011;65507;48.454;-2.058;2023-02-15T02:37:19;28.15;;;12.63;;
76612;SDS011;65507;48.454;-2.058;2023-02-15T02:40:11;27.42;;;13.48;;
76612;SDS011;65507;48.454;-2.058;2023-02-15T02:42:59;28.08;;;13.57;;
76612;SDS011;65507;48.454;-2.058;2023-02-15T02:45:35;26.00;;;12.85;;
76612;SDS011;65507;48.454;-2.058;2023-02-15T02:48:07;25.98;;;13.75;;
76612;SDS011;65507;48.454;-2.058;2023-02-15T02:50:38;26.48;;;13.13;;
76612;SDS011;65507;48.454;-2.058;2023-02-15T02:55:53;25.98;;;12.95;;
76612;SDS011;65507;48.454;-2.058;2023-02-15T02:58:25;26.55;;;13.98;;
76612;SDS011;65507;48.454;-2.058;2023-02-15T03:03:44;25.73;;;12.70;;
76612;SDS011;65507;48.454;-2.058;2023-02-15T03:06:15;30.50;;;13.95;;
76612;SDS011;65507;48.454;-2.058;2023-02-15T03:08:54;32.85;;;13.88;;
76612;SDS011;65507;48.454;-2.058;2023-02-15T03:11:27;30.35;;;14.10;;
76612;SDS011;65507;48.454;-2.058;2023-02-15T03:13:53;26.13;;;13.30;;
76612;SDS011;65507;48.454;-2.058;2023-02-15T03:16:22;29.85;;;13.27;;
76612;SDS011;65507;48.454;-2.058;2023-02-15T03:18:52;28.90;;;12.73;;
76612;SDS011;65507;48.454;-2.058;2023-02-15T03:21:34;30.55;;;13.20;;
76612;SDS011;65507;48.454;-2.058;2023-02-15T03:24:09;27.27;;;14.13;;
76612;SDS011;65507;48.454;-2.058;2023-02-15T03:26:38;26.52;;;13.40;;
76612;SDS011;65507;48.454;-2.058;2023-02-15T03:29:06;26.63;;;13.07;;
76612;SDS011;65507;48.454;-2.058;2023-02-15T03:31:35;28.50;;;13.52;;
76612;SDS011;65507;48.454;-2.058;2023-02-15T03:34:04;25.95;;;12.20;;
76612;SDS011;65507;48.454;-2.058;2023-02-15T03:39:18;31.25;;;13.63;;
76612;SDS011;65507;48.454;-2.058;2023-02-15T03:41:59;28.15;;;13.55;;
76612;SDS011;65507;48.454;-2.058;2023-02-15T03:47:17;26.75;;;13.15;;
76612;SDS011;65507;48.454;-2.058;2023-02-15T03:52:12;25.75;;;12.82;;
76612;SDS011;65507;48.454;-2.058;2023-02-15T03:54:40;29.27;;;14.02;;
76612;SDS011;65507;48.454;-2.058;2023-02-15T03:57:09;25.85;;;13.32;;
76612;SDS011;65507;48.454;-2.058;2023-02-15T03:59:58;25.38;;;13.10;;
76612;SDS011;65507;48.454;-2.058;2023-02-15T04:02:57;25.65;;;12.90;;
76612;SDS011;65507;48.454;-2.058;2023-02-15T04:05:33;27.90;;;13.43;;
76612;SDS011;65507;48.454;-2.058;2023-02-15T04:07:58;25.90;;;12.55;;
76612;SDS011;65507;48.454;-2.058;2023-02-15T04:10:24;27.85;;;12.85;;
76612;SDS011;65507;48.454;-2.058;2023-02-15T04:13:08;27.65;;;12.73;;
76612;SDS011;65507;48.454;-2.058;2023-02-15T04:15:34;24.20;;;11.82;;
76612;SDS011;65507;48.454;-2.058;2023-02-15T04:18:18;31.30;;;12.50;;
76612;SDS011;65507;48.454;-2.058;2023-02-15T04:20:44;22.50;;;12.73;;
76612;SDS011;65507;48.454;-2.058;2023-02-15T04:23:29;26.20;;;12.68;;
76612;SDS011;65507;48.454;-2.058;2023-02-15T04:26:14;26.75;;;13.30;;
76612;SDS011;65507;48.454;-2.058;2023-02-15T04:28:40;25.80;;;12.07;;
76612;SDS011;65507;48.454;-2.058;2023-02-15T04:31:06;24.65;;;12.20;;
76612;SDS011;65507;48.454;-2.058;2023-02-15T04:33:31;29.60;;;13.15;;
76612;SDS011;65507;48.454;-2.058;2023-02-15T04:35:57;23.88;;;12.20;;
76612;SDS011;65507;48.454;-2.058;2023-02-15T04:38:23;25.13;;;12.98;;
76612;SDS011;65507;48.454;-2.058;2023-02-15T04:40:51;25.65;;;12.38;;
76612;SDS011;65507;48.454;-2.058;2023-02-15T04:43:18;29.10;;;13.25;;
76612;SDS011;65507;48.454;-2.058;2023-02-15T04:45:48;27.48;;;12.50;;
76612;SDS011;65507;48.454;-2.058;2023-02-15T04:48:15;25.35;;;11.45;;
76612;SDS011;65507;48.454;-2.058;2023-02-15T04:50:41;22.23;;;11.32;;
76612;SDS011;65507;48.454;-2.058;2023-02-15T04:53:07;23.88;;;11.43;;
76612;SDS011;65507;48.454;-2.058;2023-02-15T04:55:33;21.27;;;11.85;;
76612;SDS011;65507;48.454;-2.058;2023-02-15T04:57:59;28.35;;;13.00;;
76612;SDS011;65507;48.454;-2.058;2023-02-15T05:00:25;28.30;;;11.93;;
76612;SDS011;65507;48.454;-2.058;2023-02-15T05:02:50;23.85;;;12.00;;
76612;SDS011;65507;48.454;-2.058;2023-02-15T05:05:16;26.08;;;12.55;;
76612;SDS011;65507;48.454;-2.058;2023-02-15T05:07:42;25.25;;;12.07;;
76612;SDS011;65507;48.454;-2.058;2023-02-15T05:10:07;26.92;;;12.77;;
76612;SDS011;65507;48.454;-2.058;2023-02-15T05:12:33;24.50;;;11.27;;
76612;SDS011;65507;48.454;-2.058;2023-02-15T05:14:59;24.38;;;11.68;;
76612;SDS011;65507;48.454;-2.058;2023-02-15T05:17:25;22.80;;;11.38;;
76612;SDS011;65507;48.454;-2.058;2023-02-15T05:19:50;24.60;;;12.50;;
76612;SDS011;65507;48.454;-2.058;2023-02-15T05:22:16;27.23;;;12.75;;
76612;SDS011;65507;48.454;-2.058;2023-02-15T05:24:42;26.38;;;13.00;;
76612;SDS011;65507;48.454;-2.058;2023-02-15T05:27:29;25.05;;;12.40;;
76612;SDS011;65507;48.454;-2.058;2023-02-15T05:30:13;24.67;;;11.57;;
76612;SDS011;65507;48.454;-2.058;2023-02-15T05:32:39;28.50;;;12.25;;
76612;SDS011;65507;48.454;-2.058;2023-02-15T05:35:05;24.73;;;11.20;;
76612;SDS011;65507;48.454;-2.058;2023-02-15T05:37:31;26.58;;;11.52;;
76612;SDS011;65507;48.454;-2.058;2023-02-15T05:39:57;23.50;;;10.77;;
76612;SDS011;65507;48.454;-2.058;2023-02-15T05:42:23;22.77;;;11.65;;
76612;SDS011;65507;48.454;-2.058;2023-02-15T05:44:48;28.80;;;12.43;;
76612;SDS011;65507;48.454;-2.058;2023-02-15T05:47:14;23.13;;;11.05;;
76612;SDS011;65507;48.454;-2.058;2023-02-15T05:49:40;29.20;;;11.93;;
76612;SDS011;65507;48.454;-2.058;2023-02-15T05:52:05;25.58;;;12.32;;
76612;SDS011;65507;48.454;-2.058;2023-02-15T05:54:31;25.88;;;12.38;;
76612;SDS011;65507;48.454;-2.058;2023-02-15T05:56:57;25.60;;;11.07;;
76612;SDS011;65507;48.454;-2.058;2023-02-15T05:59:22;21.60;;;10.85;;
76612;SDS011;65507;48.454;-2.058;2023-02-15T06:01:48;23.83;;;11.63;;
76612;SDS011;65507;48.454;-2.058;2023-02-15T06:04:14;23.52;;;11.77;;
76612;SDS011;65507;48.454;-2.058;2023-02-15T06:06:40;26.13;;;12.82;;
76612;SDS011;65507;48.454;-2.058;2023-02-15T06:09:05;25.58;;;12.35;;
76612;SDS011;65507;48.454;-2.058;2023-02-15T06:11:31;24.50;;;12.23;;
76612;SDS011;65507;48.454;-2.058;2023-02-15T06:13:57;24.08;;;11.73;;
76612;SDS011;65507;48.454;-2.058;2023-02-15T06:16:22;25.55;;;12.02;;
76612;SDS011;65507;48.454;-2.058;2023-02-15T06:18:48;24.75;;;12.05;;
76612;SDS011;65507;48.454;-2.058;2023-02-15T06:21:13;25.02;;;11.77;;
76612;SDS011;65507;48.454;-2.058;2023-02-15T06:23:39;24.08;;;11.90;;
76612;SDS011;65507;48.454;-2.058;2023-02-15T06:26:05;24.92;;;12.45;;
76612;SDS011;65507;48.454;-2.058;2023-02-15T06:28:31;25.40;;;11.90;;
76612;SDS011;65507;48.454;-2.058;2023-02-15T06:30:56;23.40;;;11.63;;
76612;SDS011;65507;48.454;-2.058;2023-02-15T06:33:22;25.17;;;12.10;;
76612;SDS011;65507;48.454;-2.058;2023-02-15T06:35:48;28.17;;;12.23;;
76612;SDS011;65507;48.454;-2.058;2023-02-15T06:38:14;23.70;;;12.02;;
76612;SDS011;65507;48.454;-2.058;2023-02-15T06:40:39;24.55;;;11.93;;
76612;SDS011;65507;48.454;-2.058;2023-02-15T06:43:05;22.75;;;11.57;;
76612;SDS011;65507;48.454;-2.058;2023-02-15T06:45:31;26.20;;;12.02;;
76612;SDS011;65507;48.454;-2.058;2023-02-15T06:47:56;29.23;;;12.73;;
76612;SDS011;65507;48.454;-2.058;2023-02-15T06:50:22;30.13;;;11.30;;
76612;SDS011;65507;48.454;-2.058;2023-02-15T06:52:48;25.48;;;11.48;;
76612;SDS011;65507;48.454;-2.058;2023-02-15T06:55:13;51.55;;;20.58;;
76612;SDS011;65507;48.454;-2.058;2023-02-15T06:57:39;27.95;;;12.85;;
76612;SDS011;65507;48.454;-2.058;2023-02-15T07:00:05;23.73;;;11.88;;
76612;SDS011;65507;48.454;-2.058;2023-02-15T07:02:32;24.23;;;11.83;;
76612;SDS011;65507;48.454;-2.058;2023-02-15T07:04:58;25.77;;;12.93;;
76612;SDS011;65507;48.454;-2.058;2023-02-15T07:07:24;22.92;;;11.55;;
76612;SDS011;65507;48.454;-2.058;2023-02-15T07:09:50;24.55;;;11.98;;
76612;SDS011;65507;48.454;-2.058;2023-02-15T07:12:16;24.63;;;11.98;;
76612;SDS011;65507;48.454;-2.058;2023-02-15T07:15:00;24.75;;;11.30;;
76612;SDS011;65507;48.454;-2.058;2023-02-15T07:17:26;26.98;;;11.38;;
76612;SDS011;65507;48.454;-2.058;2023-02-15T07:19:53;28.38;;;11.88;;
76612;SDS011;65507;48.454;-2.058;2023-02-15T07:22:19;27.15;;;12.73;;
76612;SDS011;65507;48.454;-2.058;2023-02-15T07:24:45;26.98;;;12.02;;
76612;SDS011;65507;48.454;-2.058;2023-02-15T07:27:12;24.77;;;12.38;;
76612;SDS011;65507;48.454;-2.058;2023-02-15T07:29:38;27.30;;;11.93;;
76612;SDS011;65507;48.454;-2.058;2023-02-15T07:32:04;26.25;;;11.85;;
76612;SDS011;65507;48.454;-2.058;2023-02-15T07:34:29;27.67;;;12.02;;
76612;SDS011;65507;48.454;-2.058;2023-02-15T07:36:55;23.15;;;11.27;;
76612;SDS011;65507;48.454;-2.058;2023-02-15T07:39:21;27.13;;;11.05;;
76612;SDS011;65507;48.454;-2.058;2023-02-15T07:41:46;24.55;;;11.90;;
76612;SDS011;65507;48.454;-2.058;2023-02-15T07:44:13;21.58;;;11.05;;
76612;SDS011;65507;48.454;-2.058;2023-02-15T07:46:39;27.08;;;11.80;;
76612;SDS011;65507;48.454;-2.058;2023-02-15T07:49:05;21.05;;;11.20;;
76612;SDS011;65507;48.454;-2.058;2023-02-15T07:51:31;24.40;;;10.93;;
76612;SDS011;65507;48.454;-2.058;2023-02-15T07:53:56;23.23;;;10.95;;
76612;SDS011;65507;48.454;-2.058;2023-02-15T07:56:22;23.40;;;11.35;;
76612;SDS011;65507;48.454;-2.058;2023-02-15T07:58:48;20.80;;;10.82;;
76612;SDS011;65507;48.454;-2.058;2023-02-15T08:01:35;23.42;;;10.65;;
76612;SDS011;65507;48.454;-2.058;2023-02-15T08:04:02;24.30;;;10.85;;
76612;SDS011;65507;48.454;-2.058;2023-02-15T08:06:30;20.05;;;11.07;;
76612;SDS011;65507;48.454;-2.058;2023-02-15T08:08:58;22.83;;;11.45;;
76612;SDS011;65507;48.454;-2.058;2023-02-15T08:11:25;19.33;;;10.95;;
76612;SDS011;65507;48.454;-2.058;2023-02-15T08:16:48;23.50;;;10.95;;
76612;SDS011;65507;48.454;-2.058;2023-02-15T08:21:46;23.67;;;11.63;;
76612;SDS011;65507;48.454;-2.058;2023-02-15T08:24:14;25.58;;;12.18;;
76612;SDS011;65507;48.454;-2.058;2023-02-15T08:26:41;23.23;;;11.55;;
76612;SDS011;65507;48.454;-2.058;2023-02-15T08:29:09;21.40;;;11.43;;
76612;SDS011;65507;48.454;-2.058;2023-02-15T08:31:36;22.85;;;11.13;;
76612;SDS011;65507;48.454;-2.058;2023-02-15T08:34:02;25.47;;;11.70;;
76612;SDS011;65507;48.454;-2.058;2023-02-15T08:36:29;25.10;;;11.18;;
76612;SDS011;65507;48.454;-2.058;2023-02-15T08:38:57;23.95;;;11.52;;
76612;SDS011;65507;48.454;-2.058;2023-02-15T08:41:25;23.20;;;10.85;;
76612;SDS011;65507;48.454;-2.058;2023-02-15T08:43:52;22.17;;;11.25;;
76612;SDS011;65507;48.454;-2.058;2023-02-15T08:46:19;28.17;;;12.73;;
76612;SDS011;65507;48.454;-2.058;2023-02-15T08:48:46;26.95;;;11.80;;
76612;SDS011;65507;48.454;-2.058;2023-02-15T08:51:13;20.40;;;10.60;;
76612;SDS011;65507;48.454;-2.058;2023-02-15T08:53:45;21.23;;;10.95;;
76612;SDS011;65507;48.454;-2.058;2023-02-15T08:56:16;22.40;;;11.18;;
76612;SDS011;65507;48.454;-2.058;2023-02-15T08:58:43;22.83;;;10.70;;
76612;SDS011;65507;48.454;-2.058;2023-02-15T09:01:13;21.85;;;9.90;;
76612;SDS011;65507;48.454;-2.058;2023-02-15T09:03:46;25.52;;;11.20;;
76612;SDS011;65507;48.454;-2.058;2023-02-15T09:06:13;24.33;;;10.15;;
76612;SDS011;65507;48.454;-2.058;2023-02-15T09:08:39;25.23;;;11.10;;
76612;SDS011;65507;48.454;-2.058;2023-02-15T09:11:10;22.10;;;10.55;;
76612;SDS011;65507;48.454;-2.058;2023-02-15T09:13:38;20.58;;;10.25;;
76612;SDS011;65507;48.454;-2.058;2023-02-15T09:16:05;20.80;;;10.23;;
76612;SDS011;65507;48.454;-2.058;2023-02-15T09:18:35;20.05;;;10.32;;
76612;SDS011;65507;48.454;-2.058;2023-02-15T09:21:06;21.23;;;10.70;;
76612;SDS011;65507;48.454;-2.058;2023-02-15T09:23:43;21.83;;;10.73;;
76612;SDS011;65507;48.454;-2.058;2023-02-15T09:26:11;21.20;;;10.75;;
76612;SDS011;65507;48.454;-2.058;2023-02-15T09:28:38;19.08;;;10.48;;
76612;SDS011;65507;48.454;-2.058;2023-02-15T09:31:05;20.50;;;10.73;;
76612;SDS011;65507;48.454;-2.058;2023-02-15T09:33:33;24.25;;;10.48;;
76612;SDS011;65507;48.454;-2.058;2023-02-15T09:36:00;21.67;;;10.85;;
76612;SDS011;65507;48.454;-2.058;2023-02-15T09:38:26;22.02;;;10.15;;
76612;SDS011;65507;48.454;-2.058;2023-02-15T09:41:08;21.63;;;10.55;;
76612;SDS011;65507;48.454;-2.058;2023-02-15T09:49:34;18.58;;;9.38;;
76612;SDS011;65507;48.454;-2.058;2023-02-15T09:57:58;24.75;;;10.32;;
76612;SDS011;65507;48.454;-2.058;2023-02-15T10:03:53;19.23;;;10.70;;
76612;SDS011;65507;48.454;-2.058;2023-02-15T10:19:56;19.05;;;10.25;;
76612;SDS011;65507;48.454;-2.058;2023-02-15T10:28:17;21.60;;;10.13;;
76612;SDS011;65507;48.454;-2.058;2023-02-15T10:30:48;20.58;;;9.75;;
76612;SDS011;65507;48.454;-2.058;2023-02-15T10:52:27;18.00;;;10.35;;
76612;SDS011;65507;48.454;-2.058;2023-02-15T10:58:07;18.88;;;10.48;;
76612;SDS011;65507;48.454;-2.058;2023-02-15T11:01:05;23.13;;;10.70;;
76612;SDS011;65507;48.454;-2.058;2023-02-15T11:06:26;22.02;;;10.88;;
76612;SDS011;65507;48.454;-2.058;2023-02-15T11:09:02;22.27;;;10.80;;
76612;SDS011;65507;48.454;-2.058;2023-02-15T11:11:35;21.23;;;10.68;;
76612;SDS011;65507;48.454;-2.058;2023-02-15T11:17:15;20.90;;;10.45;;
76612;SDS011;65507;48.454;-2.058;2023-02-15T11:19:58;21.52;;;10.52;;
76612;SDS011;65507;48.454;-2.058;2023-02-15T11:22:48;19.77;;;9.98;;
76612;SDS011;65507;48.454;-2.058;2023-02-15T11:25:19;21.38;;;10.60;;
76612;SDS011;65507;48.454;-2.058;2023-02-15T11:27:49;22.08;;;11.80;;
76612;SDS011;65507;48.454;-2.058;2023-02-15T11:30:20;16.90;;;10.68;;
76612;SDS011;65507;48.454;-2.058;2023-02-15T11:33:12;20.25;;;10.05;;
76612;SDS011;65507;48.454;-2.058;2023-02-15T11:38:20;21.90;;;10.52;;
76612;SDS011;65507;48.454;-2.058;2023-02-15T11:40:49;19.48;;;9.95;;
76612;SDS011;65507;48.454;-2.058;2023-02-15T11:43:27;20.63;;;11.23;;
76612;SDS011;65507;48.454;-2.058;2023-02-15T11:45:54;19.13;;;10.75;;
76612;SDS011;65507;48.454;-2.058;2023-02-15T11:48:20;18.27;;;10.18;;
76612;SDS011;65507;48.454;-2.058;2023-02-15T11:50:46;21.45;;;11.30;;
76612;SDS011;65507;48.454;-2.058;2023-02-15T11:53:13;23.23;;;10.77;;
76612;SDS011;65507;48.454;-2.058;2023-02-15T11:55:39;21.30;;;11.63;;
76612;SDS011;65507;48.454;-2.058;2023-02-15T12:00:50;18.30;;;10.13;;
76612;SDS011;65507;48.454;-2.058;2023-02-15T12:03:24;20.52;;;11.23;;
76612;SDS011;65507;48.454;-2.058;2023-02-15T12:06:01;19.73;;;10.45;;
76612;SDS011;65507;48.454;-2.058;2023-02-15T12:08:34;22.48;;;11.30;;
76612;SDS011;65507;48.454;-2.058;2023-02-15T12:11:07;21.52;;;11.07;;
76612;SDS011;65507;48.454;-2.058;2023-02-15T12:16:28;20.58;;;11.00;;
76612;SDS011;65507;48.454;-2.058;2023-02-15T12:18:58;22.67;;;11.57;;
76612;SDS011;65507;48.454;-2.058;2023-02-15T12:21:30;20.23;;;11.63;;
76612;SDS011;65507;48.454;-2.058;2023-02-15T12:26:45;19.77;;;11.77;;
76612;SDS011;65507;48.454;-2.058;2023-02-15T12:29:35;21.63;;;11.40;;
76612;SDS011;65507;48.454;-2.058;2023-02-15T12:32:08;22.58;;;11.25;;
76612;SDS011;65507;48.454;-2.058;2023-02-15T12:34:41;23.58;;;11.50;;
76612;SDS011;65507;48.454;-2.058;2023-02-15T12:37:22;24.08;;;11.85;;
76612;SDS011;65507;48.454;-2.058;2023-02-15T12:42:23;22.13;;;11.77;;
76612;SDS011;65507;48.454;-2.058;2023-02-15T12:45:03;21.45;;;10.95;;
76612;SDS011;65507;48.454;-2.058;2023-02-15T12:47:44;21.65;;;11.25;;
76612;SDS011;65507;48.454;-2.058;2023-02-15T12:52:47;18.52;;;10.82;;
76612;SDS011;65507;48.454;-2.058;2023-02-15T12:55:22;27.40;;;12.10;;
76612;SDS011;65507;48.454;-2.058;2023-02-15T12:58:35;18.63;;;10.43;;
76612;SDS011;65507;48.454;-2.058;2023-02-15T13:03:50;25.00;;;12.23;;
76612;SDS011;65507;48.454;-2.058;2023-02-15T13:06:17;20.05;;;11.00;;
76612;SDS011;65507;48.454;-2.058;2023-02-15T13:08:49;20.52;;;11.45;;
76612;SDS011;65507;48.454;-2.058;2023-02-15T13:11:26;22.33;;;11.75;;
76612;SDS011;65507;48.454;-2.058;2023-02-15T13:16:54;23.67;;;11.40;;
76612;SDS011;65507;48.454;-2.058;2023-02-15T13:19:37;19.35;;;10.85;;
76612;SDS011;65507;48.454;-2.058;2023-02-15T13:22:06;20.23;;;10.70;;
76612;SDS011;65507;48.454;-2.058;2023-02-15T13:24:37;18.48;;;10.35;;
76612;SDS011;65507;48.454;-2.058;2023-02-15T13:27:16;17.48;;;10.18;;
76612;SDS011;65507;48.454;-2.058;2023-02-15T13:29:46;18.80;;;9.75;;
76612;SDS011;65507;48.454;-2.058;2023-02-15T13:32:26;18.45;;;9.45;;
76612;SDS011;65507;48.454;-2.058;2023-02-15T13:34:57;15.40;;;9.30;;
76612;SDS011;65507;48.454;-2.058;2023-02-15T13:43:27;19.77;;;10.30;;
76612;SDS011;65507;48.454;-2.058;2023-02-15T13:46:21;19.48;;;9.98;;
76612;SDS011;65507;48.454;-2.058;2023-02-15T13:49:05;21.95;;;8.98;;
76612;SDS011;65507;48.454;-2.058;2023-02-15T13:51:55;15.25;;;9.05;;
76612;SDS011;65507;48.454;-2.058;2023-02-15T14:07:55;15.57;;;9.15;;
76612;SDS011;65507;48.454;-2.058;2023-02-15T14:18:54;14.52;;;8.38;;
76612;SDS011;65507;48.454;-2.058;2023-02-15T14:21:42;17.95;;;10.10;;
76612;SDS011;65507;48.454;-2.058;2023-02-15T14:24:42;13.82;;;9.02;;
76612;SDS011;65507;48.454;-2.058;2023-02-15T14:30:02;16.67;;;9.35;;
76612;SDS011;65507;48.454;-2.058;2023-02-15T14:32:49;13.52;;;8.65;;
76612;SDS011;65507;48.454;-2.058;2023-02-15T14:35:19;17.25;;;9.65;;
76612;SDS011;65507;48.454;-2.058;2023-02-15T14:48:50;20.25;;;10.75;;
76612;SDS011;65507;48.454;-2.058;2023-02-15T14:54:08;15.50;;;8.80;;
76612;SDS011;65507;48.454;-2.058;2023-02-15T14:56:46;15.43;;;8.40;;
76612;SDS011;65507;48.454;-2.058;2023-02-15T15:02:39;12.75;;;7.50;;
76612;SDS011;65507;48.454;-2.058;2023-02-15T15:05:21;16.65;;;8.75;;
76612;SDS011;65507;48.454;-2.058;2023-02-15T15:07:57;12.90;;;7.85;;
76612;SDS011;65507;48.454;-2.058;2023-02-15T15:12:52;12.25;;;6.93;;
76612;SDS011;65507;48.454;-2.058;2023-02-15T15:18:04;11.63;;;6.60;;
76612;SDS011;65507;48.454;-2.058;2023-02-15T15:25:45;12.55;;;7.38;;
76612;SDS011;65507;48.454;-2.058;2023-02-15T15:50:35;11.77;;;7.15;;
76612;SDS011;65507;48.454;-2.058;2023-02-15T15:53:05;14.52;;;8.07;;
76612;SDS011;65507;48.454;-2.058;2023-02-15T15:55:41;14.80;;;7.53;;
76612;SDS011;65507;48.454;-2.058;2023-02-15T15:58:08;15.30;;;6.97;;
76612;SDS011;65507;48.454;-2.058;2023-02-15T16:03:25;12.00;;;6.75;;
76612;SDS011;65507;48.454;-2.058;2023-02-15T16:05:52;10.85;;;7.03;;
76612;SDS011;65507;48.454;-2.058;2023-02-15T16:08:35;10.77;;;6.95;;
76612;SDS011;65507;48.454;-2.058;2023-02-15T16:11:08;13.60;;;7.13;;
76612;SDS011;65507;48.454;-2.058;2023-02-15T16:13:44;13.15;;;7.82;;
76612;SDS011;65507;48.454;-2.058;2023-02-15T16:16:11;14.57;;;8.27;;
76612;SDS011;65507;48.454;-2.058;2023-02-15T16:18:38;14.88;;;8.07;;
76612;SDS011;65507;48.454;-2.058;2023-02-15T16:21:12;15.40;;;8.55;;
76612;SDS011;65507;48.454;-2.058;2023-02-15T16:29:14;20.15;;;8.93;;
76612;SDS011;65507;48.454;-2.058;2023-02-15T16:31:58;21.10;;;9.48;;
76612;SDS011;65507;48.454;-2.058;2023-02-15T16:34:28;15.95;;;8.77;;
76612;SDS011;65507;48.454;-2.058;2023-02-15T16:37:13;16.08;;;9.40;;
76612;SDS011;65507;48.454;-2.058;2023-02-15T16:39:43;17.42;;;9.57;;
76612;SDS011;65507;48.454;-2.058;2023-02-15T16:42:11;20.13;;;9.73;;
76612;SDS011;65507;48.454;-2.058;2023-02-15T16:44:39;17.58;;;9.55;;
76612;SDS011;65507;48.454;-2.058;2023-02-15T16:47:06;22.83;;;9.98;;
76612;SDS011;65507;48.454;-2.058;2023-02-15T16:49:43;18.80;;;10.38;;
76612;SDS011;65507;48.454;-2.058;2023-02-15T16:52:13;19.98;;;9.75;;
76612;SDS011;65507;48.454;-2.058;2023-02-15T16:54:44;15.30;;;10.20;;
76612;SDS011;65507;48.454;-2.058;2023-02-15T16:57:16;20.17;;;10.65;;
76612;SDS011;65507;48.454;-2.058;2023-02-15T16:59:46;22.00;;;10.82;;
76612;SDS011;65507;48.454;-2.058;2023-02-15T17:02:18;25.70;;;11.55;;
76612;SDS011;65507;48.454;-2.058;2023-02-15T17:04:52;20.52;;;10.88;;
76612;SDS011;65507;48.454;-2.058;2023-02-15T17:07:32;21.30;;;11.73;;
76612;SDS011;65507;48.454;-2.058;2023-02-15T17:09:58;21.48;;;11.80;;
76612;SDS011;65507;48.454;-2.058;2023-02-15T17:15:28;18.90;;;11.43;;
76612;SDS011;65507;48.454;-2.058;2023-02-15T17:17:58;19.58;;;10.98;;
76612;SDS011;65507;48.454;-2.058;2023-02-15T17:20:37;20.38;;;11.65;;
76612;SDS011;65507;48.454;-2.058;2023-02-15T17:23:06;23.40;;;12.07;;
76612;SDS011;65507;48.454;-2.058;2023-02-15T17:25:45;22.73;;;12.25;;
76612;SDS011;65507;48.454;-2.058;2023-02-15T17:28:27;17.45;;;11.15;;
76612;SDS011;65507;48.454;-2.058;2023-02-15T17:30:55;22.30;;;12.27;;
76612;SDS011;65507;48.454;-2.058;2023-02-15T17:33:28;22.00;;;11.02;;
76612;SDS011;65507;48.454;-2.058;2023-02-15T17:38:37;24.10;;;12.02;;
76612;SDS011;65507;48.454;-2.058;2023-02-15T17:41:04;22.08;;;11.23;;
76612;SDS011;65507;48.454;-2.058;2023-02-15T17:43:30;24.73;;;11.55;;
76612;SDS011;65507;48.454;-2.058;2023-02-15T17:45:56;22.83;;;11.73;;
76612;SDS011;65507;48.454;-2.058;2023-02-15T17:50:55;19.75;;;10.57;;
76612;SDS011;65507;48.454;-2.058;2023-02-15T17:53:21;21.90;;;11.18;;
76612;SDS011;65507;48.454;-2.058;2023-02-15T17:55:48;22.10;;;10.85;;
76612;SDS011;65507;48.454;-2.058;2023-02-15T17:58:14;23.00;;;11.30;;
76612;SDS011;65507;48.454;-2.058;2023-02-15T18:00:44;21.77;;;10.50;;
76612;SDS011;65507;48.454;-2.058;2023-02-15T18:03:41;17.95;;;9.15;;
76612;SDS011;65507;48.454;-2.058;2023-02-15T18:06:29;21.40;;;9.65;;
76612;SDS011;65507;48.454;-2.058;2023-02-15T18:09:15;14.77;;;8.45;;
76612;SDS011;65507;48.454;-2.058;2023-02-15T18:12:01;19.80;;;8.73;;